Time;durP1;ratioP1;P1;durP2;ratioP2;P2;SDS_P1;SDS_P2;PMS_P1;PMS_P2;Temp;Humidity;BMP_temperature;BMP_pressure;BME280_temperature;BME280_humidity;BME280_pressure;Samples;Min_cycle;Max_cycle;Signal;HPM_P1;HPM_P2
2022/03/10 00:01:40;;;;;;;12.73;8.17;;;4.40;93.30;;;;;;5069258;28;20397;-81
2022/03/10 00:04:06;;;;;;;14.27;7.83;;;4.40;93.00;;;;;;5069354;28;20303;-81
2022/03/10 00:06:31;;;;;;;12.23;7.70;;;4.30;93.50;;;;;;5069244;28;20102;-80
2022/03/10 00:08:58;;;;;;;11.77;7.87;;;4.30;93.40;;;;;;5069483;28;20757;-80
2022/03/10 00:11:23;;;;;;;11.07;7.75;;;4.20;93.80;;;;;;5069614;28;20047;-80
2022/03/10 00:13:50;;;;;;;10.95;7.68;;;4.20;94.20;;;;;;5069176;28;20048;-80
2022/03/10 00:16:17;;;;;;;10.68;6.75;;;4.10;94.50;;;;;;5044008;28;20040;-79
2022/03/10 00:18:42;;;;;;;9.27;6.60;;;4.10;94.30;;;;;;5073070;28;20440;-80
2022/03/10 00:21:08;;;;;;;11.67;6.87;;;4.10;94.70;;;;;;5072367;28;20075;-80
2022/03/10 00:23:34;;;;;;;12.73;7.90;;;4.00;94.90;;;;;;5072730;28;20072;-80
2022/03/10 00:26:00;;;;;;;13.07;8.55;;;4.00;95.20;;;;;;5072637;28;20036;-80
2022/03/10 00:28:25;;;;;;;13.32;8.40;;;4.00;94.70;;;;;;5072613;28;20032;-80
2022/03/10 00:30:51;;;;;;;13.50;9.13;;;4.10;95.60;;;;;;5073503;28;20467;-80
2022/03/10 00:33:17;;;;;;;13.02;8.13;;;4.10;95.70;;;;;;5073131;28;20074;-80
2022/03/10 00:35:42;;;;;;;16.23;9.57;;;4.00;95.30;;;;;;5078692;28;20049;-80
2022/03/10 00:38:08;;;;;;;11.40;8.27;;;4.00;95.60;;;;;;5055552;28;20185;-80
2022/03/10 00:40:34;;;;;;;11.68;8.05;;;4.00;95.70;;;;;;5074515;28;20088;-79
2022/03/10 00:42:59;;;;;;;10.63;7.20;;;4.00;96.20;;;;;;5080146;28;20051;-80
2022/03/10 00:45:25;;;;;;;10.63;6.63;;;3.90;96.20;;;;;;5072061;28;20278;-80
2022/03/10 00:47:52;;;;;;;10.40;6.50;;;3.90;96.30;;;;;;5072159;28;20309;-80
2022/03/10 00:50:18;;;;;;;10.48;6.88;;;3.90;96.30;;;;;;5071759;28;20408;-80
2022/03/10 00:52:45;;;;;;;9.23;6.47;;;3.80;96.90;;;;;;5061073;28;20048;-80
2022/03/10 00:55:16;;;;;;;9.43;6.28;;;3.70;97.40;;;;;;5059571;28;20075;-80
2022/03/10 00:57:42;;;;;;;10.45;6.65;;;3.60;97.80;;;;;;5074342;28;20041;-80
2022/03/10 01:00:09;;;;;;;9.77;6.17;;;3.60;97.90;;;;;;5076968;28;20036;-79
2022/03/10 01:02:35;;;;;;;8.80;5.80;;;3.50;97.70;;;;;;5073065;28;20382;-79
2022/03/10 01:05:03;;;;;;;9.13;6.07;;;3.40;97.90;;;;;;5071409;28;20121;-80
2022/03/10 01:07:28;;;;;;;9.85;6.35;;;3.40;97.10;;;;;;5071142;28;20041;-80
2022/03/10 01:09:54;;;;;;;7.07;5.00;;;3.30;97.30;;;;;;5056159;28;20389;-80
2022/03/10 01:12:19;;;;;;;8.27;6.03;;;3.20;98.40;;;;;;5071325;28;20140;-80
2022/03/10 01:14:45;;;;;;;7.73;5.30;;;3.20;98.10;;;;;;5053468;28;20386;-80
2022/03/10 01:17:11;;;;;;;13.05;6.82;;;3.20;99.20;;;;;;5071715;28;20295;-80
2022/03/10 01:19:37;;;;;;;10.98;7.25;;;3.10;98.60;;;;;;5070808;28;20044;-79
2022/03/10 01:22:03;;;;;;;11.70;7.25;;;3.10;98.10;;;;;;5076061;28;20115;-79
2022/03/10 01:24:28;;;;;;;10.70;7.47;;;3.10;99.10;;;;;;5071128;28;20116;-79
2022/03/10 01:26:54;;;;;;;11.30;6.78;;;3.00;99.10;;;;;;5078520;28;20048;-79
2022/03/10 01:29:20;;;;;;;10.00;6.20;;;3.00;98.90;;;;;;5070071;28;20044;-79
2022/03/10 01:31:46;;;;;;;12.65;7.90;;;3.00;99.10;;;;;;5073159;28;20047;-78
2022/03/10 01:34:13;;;;;;;9.82;6.28;;;2.90;99.20;;;;;;5080014;28;20048;-78
2022/03/10 01:36:40;;;;;;;10.40;7.00;;;2.90;99.50;;;;;;5069867;28;20045;-79
2022/03/10 01:39:06;;;;;;;11.35;7.32;;;2.80;99.20;;;;;;5068640;28;20187;-79
2022/03/10 01:41:32;;;;;;;13.50;8.70;;;2.80;99.40;;;;;;5035438;28;20140;-78
2022/03/10 01:44:07;;;;;;;13.43;9.07;;;2.90;99.40;;;;;;5068908;28;20055;-79
2022/03/10 01:46:33;;;;;;;15.27;9.60;;;2.90;99.90;;;;;;5069205;28;20391;-78
2022/03/10 01:48:59;;;;;;;;;;;3.00;99.90;;;;;;5070221;28;20703;-78
2022/03/10 01:51:25;;;;;;;14.77;9.05;;;3.10;99.90;;;;;;5053625;28;19920;-79
2022/03/10 01:53:51;;;;;;;14.93;8.88;;;3.10;99.90;;;;;;5067591;28;20364;-79
2022/03/10 01:56:21;;;;;;;13.55;9.38;;;3.10;99.80;;;;;;5052726;28;20047;-78
2022/03/10 01:58:50;;;;;;;15.02;10.00;;;3.00;99.70;;;;;;5068209;28;20054;-79
2022/03/10 02:01:16;;;;;;;17.50;9.80;;;3.10;99.90;;;;;;5068963;28;20460;-80
2022/03/10 02:03:42;;;;;;;;;;;3.10;99.90;;;;;;5052775;28;20353;-78
2022/03/10 02:06:09;;;;;;;14.90;9.43;;;3.20;99.90;;;;;;5053870;28;19928;-79
2022/03/10 02:11:20;;;;;;;12.00;7.70;;;3.20;99.60;;;;;;5069491;28;20063;-78
2022/03/10 02:13:46;;;;;;;10.35;7.03;;;3.10;99.60;;;;;;5070190;28;20036;-79
2022/03/10 02:19:03;;;;;;;14.32;8.15;;;3.00;99.90;;;;;;5068813;28;20087;-79
2022/03/10 02:21:29;;;;;;;14.95;8.40;;;2.90;99.90;;;;;;5066884;28;20043;-79
2022/03/10 02:23:55;;;;;;;13.43;8.35;;;2.80;99.90;;;;;;5070926;28;20031;-80
2022/03/10 02:26:21;;;;;;;13.50;8.65;;;2.70;99.90;;;;;;5070029;28;20113;-80
2022/03/10 02:28:48;;;;;;;11.23;7.85;;;2.60;99.90;;;;;;5070612;28;20032;-79
2022/03/10 02:31:14;;;;;;;12.00;7.57;;;2.50;99.90;;;;;;5069815;28;20075;-79
2022/03/10 02:33:40;;;;;;;12.32;7.63;;;2.50;99.90;;;;;;5071512;28;20056;-80
2022/03/10 02:36:06;;;;;;;11.02;7.40;;;2.40;99.90;;;;;;5052408;28;20451;-78
2022/03/10 02:38:33;;;;;;;13.98;8.85;;;2.30;99.90;;;;;;5066674;28;20080;-79
2022/03/10 02:40:58;;;;;;;13.02;8.15;;;2.30;99.90;;;;;;5050769;28;20119;-78
2022/03/10 02:43:24;;;;;;;12.52;8.65;;;2.30;99.90;;;;;;5050816;28;20048;-79
2022/03/10 02:45:51;;;;;;;12.60;9.07;;;2.20;99.90;;;;;;5051179;28;20043;-78
2022/03/10 02:48:16;;;;;;;;;;;2.20;99.90;;;;;;5066995;28;20036;-79
2022/03/10 02:50:43;;;;;;;13.85;9.10;;;2.20;99.90;;;;;;5068268;28;19981;-78
2022/03/10 02:53:10;;;;;;;11.30;7.82;;;2.30;99.90;;;;;;5030258;28;20040;-79
2022/03/10 02:55:39;;;;;;;15.25;9.90;;;2.20;99.90;;;;;;5050371;28;20047;-80
2022/03/10 02:58:05;;;;;;;15.90;10.32;;;2.20;99.90;;;;;;5067455;28;20102;-79
2022/03/10 03:00:31;;;;;;;13.38;9.52;;;2.40;99.90;;;;;;5065171;28;20232;-79
2022/03/10 03:02:57;;;;;;;14.23;8.75;;;2.40;99.90;;;;;;5066149;28;20061;-79
2022/03/10 03:05:23;;;;;;;14.07;9.43;;;2.40;99.90;;;;;;5067530;28;20037;-79
2022/03/10 03:07:49;;;;;;;13.27;8.38;;;2.40;99.90;;;;;;5067070;28;20581;-79
2022/03/10 03:10:15;;;;;;;15.88;9.73;;;2.30;99.90;;;;;;5063022;28;20131;-79
2022/03/10 03:12:50;;;;;;;16.52;9.95;;;2.30;99.90;;;;;;5069793;28;20032;-78
2022/03/10 03:15:17;;;;;;;14.43;9.75;;;2.30;99.90;;;;;;5066710;28;20044;-78
2022/03/10 03:17:43;;;;;;;;;;;2.30;99.90;;;;;;5069741;28;20173;-80
2022/03/10 03:20:14;;;;;;;12.98;8.40;;;2.30;99.90;;;;;;5068874;28;19999;-79
2022/03/10 03:22:41;;;;;;;12.98;8.18;;;2.30;99.90;;;;;;5069414;28;20554;-79
2022/03/10 03:25:07;;;;;;;11.57;7.88;;;2.20;99.90;;;;;;5069079;28;20056;-79
2022/03/10 03:27:33;;;;;;;13.82;8.02;;;2.20;99.90;;;;;;5034602;28;20041;-79
2022/03/10 03:29:59;;;;;;;10.77;7.23;;;2.20;99.90;;;;;;5066071;28;20781;-79
2022/03/10 03:32:24;;;;;;;11.80;7.70;;;2.20;99.90;;;;;;5034665;28;20384;-79
2022/03/10 03:34:50;;;;;;;11.00;6.87;;;2.20;99.90;;;;;;5035710;28;20090;-79
2022/03/10 03:37:16;;;;;;;11.93;7.70;;;2.10;99.90;;;;;;5069163;28;20297;-79
2022/03/10 03:39:41;;;;;;;11.57;7.53;;;2.10;99.90;;;;;;5068560;28;20040;-79
2022/03/10 03:42:07;;;;;;;10.10;6.60;;;2.10;99.90;;;;;;5068569;28;20452;-79
2022/03/10 03:44:33;;;;;;;9.90;6.73;;;2.00;99.90;;;;;;5055971;28;20377;-80
2022/03/10 03:46:58;;;;;;;11.00;7.13;;;2.10;99.90;;;;;;5068223;28;20154;-80
2022/03/10 03:49:24;;;;;;;10.20;6.77;;;2.10;99.90;;;;;;5068739;28;20283;-80
2022/03/10 03:51:49;;;;;;;9.50;6.37;;;2.00;99.90;;;;;;5072701;28;20044;-80
2022/03/10 03:54:15;;;;;;;9.97;6.20;;;2.00;99.90;;;;;;5072025;28;20101;-80
2022/03/10 03:56:41;;;;;;;12.00;7.38;;;1.90;99.90;;;;;;5068450;28;20298;-80
2022/03/10 03:59:07;;;;;;;13.32;8.55;;;1.90;99.90;;;;;;5071281;28;20135;-79
2022/03/10 04:01:32;;;;;;;15.43;9.50;;;1.90;99.90;;;;;;5035577;28;20512;-79
2022/03/10 04:03:58;;;;;;;12.80;7.30;;;1.90;99.90;;;;;;5027494;28;20082;-79
2022/03/10 04:06:24;;;;;;;12.30;7.70;;;1.90;99.90;;;;;;5069740;28;20037;-79
2022/03/10 04:08:50;;;;;;;13.13;8.65;;;1.80;99.90;;;;;;5067938;28;20507;-79
2022/03/10 04:11:17;;;;;;;13.02;8.50;;;1.80;99.90;;;;;;5068128;28;20059;-80
2022/03/10 04:13:43;;;;;;;;;;;1.80;99.90;;;;;;5052305;28;20037;-79
2022/03/10 04:16:08;;;;;;;16.10;9.20;;;1.80;99.90;;;;;;5069122;28;19923;-78
2022/03/10 04:18:34;;;;;;;17.77;10.00;;;1.80;99.90;;;;;;5049858;28;20037;-79
2022/03/10 04:21:01;;;;;;;15.85;9.00;;;1.70;99.90;;;;;;5067576;28;20044;-79
2022/03/10 04:23:26;;;;;;;15.75;9.00;;;1.80;99.90;;;;;;5050730;28;20032;-79
2022/03/10 04:25:53;;;;;;;14.33;9.10;;;1.80;99.90;;;;;;5066740;28;20050;-80
2022/03/10 04:28:19;;;;;;;14.20;9.10;;;1.80;99.90;;;;;;5069989;28;20093;-79
2022/03/10 04:30:45;;;;;;;15.82;8.93;;;1.80;99.90;;;;;;5068033;28;20100;-79
2022/03/10 04:33:11;;;;;;;14.50;9.43;;;1.80;99.90;;;;;;5052144;28;20474;-82
2022/03/10 04:35:37;;;;;;;17.90;10.10;;;1.80;99.90;;;;;;5067135;28;20083;-80
2022/03/10 04:38:02;;;;;;;16.50;10.30;;;1.80;99.90;;;;;;5035437;28;20085;-79
2022/03/10 04:40:29;;;;;;;18.50;11.17;;;1.90;99.90;;;;;;5051889;28;20044;-79
2022/03/10 04:42:55;;;;;;;17.95;10.10;;;2.00;99.90;;;;;;5051406;28;20155;-79
2022/03/10 04:45:21;;;;;;;19.48;10.93;;;2.00;99.90;;;;;;5068487;28;20033;-79
2022/03/10 04:47:47;;;;;;;19.73;10.75;;;2.10;99.90;;;;;;5068556;28;20433;-79
2022/03/10 04:50:14;;;;;;;18.70;10.77;;;2.10;99.90;;;;;;5068473;28;20060;-79
2022/03/10 04:52:41;;;;;;;17.10;10.07;;;2.10;99.90;;;;;;5069963;28;20049;-79
2022/03/10 04:55:07;;;;;;;;;;;2.20;99.90;;;;;;5065411;28;20511;-80
2022/03/10 04:57:34;;;;;;;17.65;11.23;;;2.20;99.90;;;;;;5045618;28;19920;-79
2022/03/10 04:59:59;;;;;;;19.67;10.50;;;2.20;99.90;;;;;;5058981;28;20045;-79
2022/03/10 05:02:25;;;;;;;16.40;10.17;;;2.20;99.90;;;;;;5029778;28;20467;-79
2022/03/10 05:04:51;;;;;;;15.23;9.67;;;2.20;99.90;;;;;;5067995;28;20423;-79
2022/03/10 05:07:17;;;;;;;16.40;9.80;;;2.20;99.90;;;;;;5065802;28;20279;-79
2022/03/10 05:09:42;;;;;;;18.90;10.57;;;2.30;99.90;;;;;;5059657;28;20295;-79
2022/03/10 05:12:09;;;;;;;15.35;9.80;;;2.30;99.90;;;;;;5040230;28;20036;-79
2022/03/10 05:14:35;;;;;;;15.15;9.27;;;2.40;99.70;;;;;;5074187;28;20083;-79
2022/03/10 05:17:02;;;;;;;13.87;8.87;;;2.40;99.80;;;;;;5057095;28;20522;-79
2022/03/10 05:19:28;;;;;;;14.80;8.73;;;2.30;99.90;;;;;;5071443;28;20450;-79
2022/03/10 05:21:53;;;;;;;14.53;9.13;;;2.30;99.80;;;;;;5053884;28;20052;-79
2022/03/10 05:24:19;;;;;;;17.13;9.90;;;2.30;99.70;;;;;;5054709;28;20311;-79
2022/03/10 05:26:45;;;;;;;12.50;7.90;;;2.30;99.70;;;;;;5054428;28;20106;-79
2022/03/10 05:29:11;;;;;;;14.23;9.40;;;2.20;99.90;;;;;;5054348;28;20151;-79
2022/03/10 05:31:38;;;;;;;14.38;8.90;;;2.20;99.70;;;;;;5071132;28;20127;-80
2022/03/10 05:34:04;;;;;;;14.20;8.63;;;2.20;99.90;;;;;;5070472;28;20353;-81
2022/03/10 05:36:29;;;;;;;12.17;8.43;;;2.10;99.90;;;;;;5055315;28;20058;-78
2022/03/10 05:38:55;;;;;;;13.77;8.30;;;2.10;99.90;;;;;;5071217;28;20083;-79
2022/03/10 05:41:21;;;;;;;13.20;8.23;;;2.10;99.90;;;;;;5066538;28;20048;-79
2022/03/10 05:43:46;;;;;;;15.83;9.17;;;2.10;99.90;;;;;;5071468;28;20291;-80
2022/03/10 05:46:12;;;;;;;14.88;9.45;;;2.10;99.90;;;;;;5037269;28;20282;-80
2022/03/10 05:48:38;;;;;;;15.93;9.73;;;2.10;99.90;;;;;;5074975;28;20040;-80
2022/03/10 05:51:03;;;;;;;15.23;9.68;;;2.10;99.90;;;;;;5073295;28;20052;-79
2022/03/10 05:53:29;;;;;;;15.17;9.20;;;2.10;99.90;;;;;;5069318;28;20076;-79
2022/03/10 05:55:55;;;;;;;13.17;8.57;;;2.10;99.90;;;;;;5065187;28;20789;-80
2022/03/10 05:58:20;;;;;;;13.93;8.20;;;2.10;99.90;;;;;;5055073;28;20488;-79
2022/03/10 06:00:46;;;;;;;14.53;9.47;;;2.10;99.90;;;;;;5020201;28;20056;-79
2022/03/10 06:03:12;;;;;;;12.85;7.55;;;2.20;99.90;;;;;;5055198;28;20028;-79
2022/03/10 06:05:38;;;;;;;14.32;9.38;;;2.20;99.90;;;;;;5070256;28;20055;-78
2022/03/10 06:08:04;;;;;;;10.67;7.03;;;2.30;99.90;;;;;;5067112;28;20063;-79
2022/03/10 06:10:30;;;;;;;;;;;2.30;99.90;;;;;;5030996;28;20298;-80
2022/03/10 06:12:55;;;;;;;15.40;9.27;;;2.30;99.80;;;;;;5068666;28;20837;-79
2022/03/10 06:15:21;;;;;;;14.00;8.20;;;2.30;99.70;;;;;;5068964;28;20419;-79
2022/03/10 06:17:47;;;;;;;13.45;8.98;;;2.30;99.80;;;;;;5053998;28;20407;-79
2022/03/10 06:20:12;;;;;;;14.05;9.05;;;2.30;99.50;;;;;;5054461;28;20161;-80
2022/03/10 06:22:39;;;;;;;13.77;9.20;;;2.40;99.70;;;;;;5071062;28;20080;-79
2022/03/10 06:25:06;;;;;;;15.20;9.38;;;2.40;99.50;;;;;;5068511;28;20040;-80
2022/03/10 06:27:32;;;;;;;13.18;8.88;;;2.40;99.40;;;;;;5051036;28;20153;-79
2022/03/10 06:29:57;;;;;;;13.82;9.02;;;2.50;99.40;;;;;;5067419;28;20089;-79
2022/03/10 06:32:24;;;;;;;17.77;9.43;;;2.50;99.40;;;;;;5067618;28;20036;-80
2022/03/10 06:34:52;;;;;;;15.68;9.90;;;2.50;99.40;;;;;;5047961;28;20693;-80
2022/03/10 06:37:18;;;;;;;12.48;8.38;;;2.60;99.50;;;;;;5050356;28;20040;-81
2022/03/10 06:39:44;;;;;;;13.63;8.73;;;2.60;99.50;;;;;;5065137;28;20041;-80
2022/03/10 06:42:10;;;;;;;16.63;9.13;;;2.60;99.40;;;;;;5067983;28;20079;-80
2022/03/10 06:44:36;;;;;;;14.65;9.43;;;2.60;99.50;;;;;;5071888;28;20125;-80
2022/03/10 06:47:07;;;;;;;13.40;8.45;;;2.70;99.30;;;;;;5058541;28;20033;-81
2022/03/10 06:49:33;;;;;;;13.63;8.52;;;2.70;99.20;;;;;;5052487;28;20543;-79
2022/03/10 06:51:59;;;;;;;12.82;8.05;;;2.70;99.10;;;;;;5053013;28;20387;-80
2022/03/10 06:54:25;;;;;;;12.15;8.25;;;2.70;99.10;;;;;;5070440;28;20040;-80
2022/03/10 06:56:51;;;;;;;13.15;8.70;;;2.70;99.10;;;;;;5076319;28;20036;-80
2022/03/10 06:59:17;;;;;;;12.68;8.25;;;2.80;99.10;;;;;;5069432;28;20036;-80
2022/03/10 07:01:43;;;;;;;12.73;8.23;;;2.90;99.10;;;;;;5068814;28;20081;-80
2022/03/10 07:04:09;;;;;;;14.23;9.18;;;2.90;99.00;;;;;;5070172;28;20399;-79
2022/03/10 07:06:35;;;;;;;13.85;8.60;;;3.00;99.00;;;;;;5075946;28;20051;-79
2022/03/10 07:09:01;;;;;;;13.55;9.32;;;3.10;98.80;;;;;;5069219;28;20036;-81
2022/03/10 07:11:28;;;;;;;12.43;8.82;;;3.20;98.50;;;;;;5050630;28;20492;-79
2022/03/10 07:13:53;;;;;;;16.30;10.32;;;3.30;98.30;;;;;;5068496;28;20044;-81
2022/03/10 07:16:19;;;;;;;13.90;9.48;;;3.40;97.90;;;;;;5075288;28;20060;-81
2022/03/10 07:18:50;;;;;;;13.88;9.15;;;3.50;97.90;;;;;;5066225;28;20056;-78
2022/03/10 07:21:23;;;;;;;14.68;9.75;;;3.50;97.60;;;;;;5071808;28;20040;-80
2022/03/10 07:23:50;;;;;;;13.85;9.10;;;3.60;97.30;;;;;;5070493;28;20047;-79
2022/03/10 07:26:16;;;;;;;16.58;9.95;;;3.70;97.30;;;;;;5070020;28;20048;-77
2022/03/10 07:28:42;;;;;;;12.38;7.45;;;3.80;97.20;;;;;;5069077;28;20040;-77
2022/03/10 07:31:08;;;;;;;14.52;9.38;;;3.90;96.90;;;;;;5068617;28;20032;-78
2022/03/10 07:33:34;;;;;;;14.40;9.57;;;4.10;96.70;;;;;;5068692;28;20050;-77
2022/03/10 07:35:59;;;;;;;14.68;9.88;;;4.20;96.60;;;;;;5054727;28;20488;-78
2022/03/10 07:38:25;;;;;;;14.98;9.43;;;4.50;96.30;;;;;;5070940;28;20048;-78
2022/03/10 07:40:51;;;;;;;12.18;8.43;;;4.70;95.00;;;;;;5071592;28;20041;-74
2022/03/10 07:43:17;;;;;;;15.38;10.15;;;5.00;95.20;;;;;;5068489;28;20453;-75
2022/03/10 07:45:43;;;;;;;13.60;9.35;;;5.20;94.30;;;;;;5064660;28;20041;-74
2022/03/10 07:48:09;;;;;;;16.33;9.80;;;5.40;94.30;;;;;;5068819;28;20037;-74
2022/03/10 07:50:35;;;;;;;14.85;9.60;;;5.50;93.70;;;;;;5064450;28;20518;-75
2022/03/10 07:53:01;;;;;;;13.25;9.30;;;5.70;93.40;;;;;;5068741;28;20068;-74
2022/03/10 07:55:27;;;;;;;15.87;9.93;;;5.80;93.60;;;;;;5056068;28;20064;-74
2022/03/10 07:57:53;;;;;;;15.35;9.63;;;5.90;93.60;;;;;;5067307;28;21383;-73
2022/03/10 08:00:18;;;;;;;13.40;9.88;;;6.00;92.50;;;;;;5051392;28;20707;-74
2022/03/10 08:02:44;;;;;;;14.98;10.52;;;6.10;92.20;;;;;;5049953;28;20040;-74
2022/03/10 08:05:10;;;;;;;12.70;9.40;;;6.10;92.50;;;;;;5050923;28;20087;-74
2022/03/10 08:07:35;;;;;;;13.48;9.77;;;6.20;92.40;;;;;;5068389;28;20039;-74
2022/03/10 08:10:04;;;;;;;15.38;10.23;;;6.20;92.20;;;;;;5050463;28;20123;-75
2022/03/10 08:12:31;;;;;;;14.68;9.98;;;6.30;91.60;;;;;;5072317;28;20052;-75
2022/03/10 08:14:57;;;;;;;13.85;9.88;;;6.50;91.60;;;;;;5068436;28;20051;-75
2022/03/10 08:17:23;;;;;;;12.93;9.20;;;6.60;91.50;;;;;;5068329;28;20047;-75
2022/03/10 08:19:49;;;;;;;15.05;10.63;;;6.60;91.30;;;;;;5067314;28;20101;-75
2022/03/10 08:22:16;;;;;;;12.57;9.13;;;6.60;91.50;;;;;;5053748;28;20044;-75
2022/03/10 08:24:42;;;;;;;13.45;9.82;;;6.60;91.10;;;;;;5068781;28;20290;-75
2022/03/10 08:27:08;;;;;;;14.35;10.30;;;6.60;91.10;;;;;;5059880;28;20120;-75
2022/03/10 08:29:34;;;;;;;13.40;10.05;;;6.60;91.20;;;;;;5074346;28;20178;-75
2022/03/10 08:32:00;;;;;;;12.43;8.90;;;6.60;91.20;;;;;;5052336;28;20048;-75
2022/03/10 08:34:25;;;;;;;13.45;8.73;;;6.60;91.30;;;;;;5074144;28;20040;-76
2022/03/10 08:36:51;;;;;;;13.13;9.73;;;6.70;91.40;;;;;;5047183;28;20055;-76
2022/03/10 08:39:17;;;;;;;14.93;9.95;;;6.70;91.40;;;;;;5060009;28;20534;-75
2022/03/10 08:41:43;;;;;;;16.13;10.52;;;6.80;91.30;;;;;;5059134;28;20048;-75
2022/03/10 08:44:12;;;;;;;15.07;10.10;;;6.80;91.20;;;;;;5038673;28;20039;-76
2022/03/10 08:46:39;;;;;;;15.20;10.05;;;6.90;91.30;;;;;;5070303;28;20029;-75
2022/03/10 08:49:05;;;;;;;14.70;10.68;;;6.90;91.30;;;;;;5068325;28;20040;-76
2022/03/10 08:51:30;;;;;;;17.17;9.50;;;7.00;91.00;;;;;;5070974;28;20131;-76
2022/03/10 08:53:56;;;;;;;13.97;10.20;;;7.00;91.20;;;;;;5066585;28;20443;-76
2022/03/10 08:56:22;;;;;;;14.48;10.05;;;7.10;91.10;;;;;;5052526;28;20301;-76
2022/03/10 08:58:48;;;;;;;13.02;9.88;;;7.20;91.10;;;;;;5067851;28;20475;-78
2022/03/10 09:01:14;;;;;;;14.68;9.98;;;7.30;91.10;;;;;;5051909;28;20329;-78
2022/03/10 09:03:40;;;;;;;16.55;11.23;;;7.30;91.10;;;;;;5065786;28;20356;-78
2022/03/10 09:06:07;;;;;;;14.35;10.20;;;7.40;90.70;;;;;;5068387;28;20108;-78
2022/03/10 09:08:33;;;;;;;12.27;9.40;;;7.40;90.70;;;;;;5032412;28;20044;-78
2022/03/10 09:10:59;;;;;;;13.40;9.55;;;7.50;91.00;;;;;;5035886;28;20356;-79
2022/03/10 09:13:25;;;;;;;11.55;8.25;;;7.60;91.10;;;;;;5039125;28;20044;-79
2022/03/10 09:15:51;;;;;;;13.73;8.65;;;7.60;91.60;;;;;;5073119;28;20055;-79
2022/03/10 09:18:17;;;;;;;14.60;9.80;;;7.70;91.20;;;;;;5033314;28;20036;-79
2022/03/10 09:20:43;;;;;;;13.50;9.70;;;7.90;91.10;;;;;;5053811;28;20044;-78
2022/03/10 09:23:08;;;;;;;15.73;10.57;;;8.00;91.10;;;;;;5055407;28;20036;-80
2022/03/10 09:25:34;;;;;;;13.63;10.05;;;8.00;91.10;;;;;;5051089;28;20048;-76
2022/03/10 09:28:00;;;;;;;13.32;10.15;;;8.10;90.90;;;;;;5052790;28;20036;-78
2022/03/10 09:30:26;;;;;;;14.60;11.10;;;8.30;90.70;;;;;;5073063;28;20040;-86
2022/03/10 09:32:52;;;;;;;14.80;10.75;;;8.40;90.50;;;;;;5053342;28;20036;-78
2022/03/10 09:35:18;;;;;;;15.18;10.73;;;8.50;90.40;;;;;;5069929;28;20138;-78
2022/03/10 09:37:44;;;;;;;14.43;10.30;;;8.60;90.10;;;;;;5069058;28;20109;-78
2022/03/10 09:40:10;;;;;;;17.65;10.85;;;8.60;89.50;;;;;;5069576;28;20036;-77
2022/03/10 09:42:37;;;;;;;;;;;8.70;89.30;;;;;;5069521;28;20060;-78
2022/03/10 09:45:08;;;;;;;18.55;11.13;;;8.80;88.40;;;;;;5068945;28;19931;-78
2022/03/10 09:47:39;;;;;;;14.48;10.35;;;8.90;88.70;;;;;;5050315;28;20048;-78
2022/03/10 09:50:10;;;;;;;16.35;11.30;;;9.00;88.90;;;;;;5069893;28;20076;-77
2022/03/10 09:52:36;;;;;;;15.80;11.45;;;9.10;88.60;;;;;;5070371;28;20064;-78
2022/03/10 09:55:04;;;;;;;16.58;11.35;;;9.30;88.00;;;;;;5052579;28;20098;-78
2022/03/10 09:57:29;;;;;;;15.48;11.23;;;9.30;86.90;;;;;;5061989;28;20055;-78
2022/03/10 09:59:59;;;;;;;15.02;10.38;;;9.40;87.70;;;;;;5068560;28;20036;-78
2022/03/10 10:02:27;;;;;;;14.32;10.38;;;9.50;87.30;;;;;;5069126;28;20037;-78
2022/03/10 10:04:53;;;;;;;15.25;10.70;;;9.60;86.90;;;;;;5068887;28;20041;-78
2022/03/10 10:07:21;;;;;;;;;;;9.70;85.20;;;;;;5069445;28;20563;-79
2022/03/10 10:09:54;;;;;;;14.13;9.95;;;9.80;86.30;;;;;;5052470;28;19942;-79
2022/03/10 10:12:27;;;;;;;14.02;10.80;;;9.90;86.50;;;;;;5068309;28;20064;-79
2022/03/10 10:14:55;;;;;;;14.77;10.80;;;10.00;85.60;;;;;;5068587;28;20039;-79
2022/03/10 10:17:32;;;;;;;13.32;10.18;;;10.10;84.70;;;;;;5051892;28;20150;-79
2022/03/10 10:20:00;;;;;;;13.35;10.73;;;10.10;84.70;;;;;;5067924;28;20071;-79
2022/03/10 10:22:27;;;;;;;15.35;9.95;;;10.30;84.70;;;;;;5068441;28;20406;-79
2022/03/10 10:24:58;;;;;;;12.85;9.95;;;10.40;84.90;;;;;;5051888;28;20036;-79
2022/03/10 10:27:27;;;;;;;14.65;10.23;;;10.60;84.50;;;;;;5068860;28;20044;-79
2022/03/10 10:29:58;;;;;;;13.77;10.50;;;10.70;84.30;;;;;;5066198;28;20040;-79
2022/03/10 10:32:48;;;;;;;14.88;10.23;;;10.80;83.00;;;;;;5067402;28;20512;-79
2022/03/10 10:35:20;;;;;;;15.68;11.07;;;11.00;83.80;;;;;;5068332;28;20059;-79
2022/03/10 10:37:49;;;;;;;13.95;10.68;;;11.20;82.60;;;;;;5067382;28;20032;-80
2022/03/10 10:40:41;;;;;;;16.05;10.70;;;11.30;82.00;;;;;;5068481;28;20052;-79
2022/03/10 10:43:07;;;;;;;17.10;11.85;;;11.40;81.30;;;;;;5049801;28;20056;-79
2022/03/10 10:45:37;;;;;;;13.77;10.48;;;11.50;80.70;;;;;;5067947;28;20041;-79
2022/03/10 10:48:04;;;;;;;13.02;10.18;;;11.60;79.90;;;;;;5066071;28;20058;-79
2022/03/10 10:50:32;;;;;;;17.67;11.77;;;11.90;81.50;;;;;;5068035;28;20518;-79
2022/03/10 10:52:58;;;;;;;13.98;10.13;;;12.20;81.10;;;;;;5051647;28;20048;-79
2022/03/10 10:55:33;;;;;;;14.85;11.40;;;12.50;79.50;;;;;;5067917;28;20078;-78
2022/03/10 10:58:14;;;;;;;15.48;11.30;;;12.70;78.40;;;;;;5068428;28;20308;-78
2022/03/10 11:00:46;;;;;;;14.82;11.02;;;13.00;77.80;;;;;;5067382;28;20476;-78
2022/03/10 11:03:20;;;;;;;18.10;10.65;;;13.20;76.90;;;;;;5066026;28;20063;-79
2022/03/10 11:05:47;;;;;;;14.52;11.50;;;13.40;75.80;;;;;;5068669;28;20134;-78
2022/03/10 11:08:15;;;;;;;13.63;10.63;;;13.60;74.50;;;;;;5066547;28;20036;-78
2022/03/10 11:10:41;;;;;;;13.15;10.70;;;13.70;74.30;;;;;;5061067;28;20152;-79
2022/03/10 11:13:07;;;;;;;14.13;10.50;;;14.10;74.10;;;;;;5062661;28;20119;-79
2022/03/10 11:15:32;;;;;;;13.88;10.73;;;14.20;73.60;;;;;;5048012;28;20429;-79
2022/03/10 11:17:59;;;;;;;15.10;11.10;;;14.30;72.00;;;;;;5031147;28;20047;-79
2022/03/10 11:20:27;;;;;;;15.55;11.70;;;14.40;70.10;;;;;;5042863;28;20044;-79
2022/03/10 11:23:28;;;;;;;14.55;11.68;;;14.40;70.20;;;;;;5063735;28;20036;-78
2022/03/10 11:26:07;;;;;;;14.23;11.10;;;14.50;68.90;;;;;;5065795;28;20052;-79
2022/03/10 11:28:40;;;;;;;13.63;11.10;;;14.90;69.40;;;;;;5066823;28;20067;-78
2022/03/10 11:31:09;;;;;;;13.57;10.85;;;15.20;66.70;;;;;;5050001;28;20058;-79
2022/03/10 11:33:36;;;;;;;12.80;10.70;;;15.30;66.60;;;;;;5050458;28;20102;-79
2022/03/10 11:36:19;;;;;;;13.95;11.07;;;15.60;65.70;;;;;;5066799;28;20045;-77
2022/03/10 11:38:56;;;;;;;14.88;11.52;;;15.70;63.50;;;;;;5049790;28;20083;-82
2022/03/10 11:41:53;;;;;;;15.45;11.43;;;15.90;63.20;;;;;;5067618;28;20596;-78
2022/03/10 11:44:20;;;;;;;14.80;11.65;;;15.80;61.50;;;;;;5071004;28;20132;-79
2022/03/10 11:46:58;;;;;;;13.90;10.77;;;15.90;62.30;;;;;;5071580;28;20028;-79
2022/03/10 11:49:38;;;;;;;13.38;11.00;;;15.90;61.70;;;;;;5069303;28;20514;-78
2022/03/10 11:52:21;;;;;;;14.18;11.02;;;15.80;61.90;;;;;;5069448;28;20046;-78
2022/03/10 11:55:02;;;;;;;15.63;11.63;;;16.00;61.60;;;;;;5053198;28;21985;-78
2022/03/10 11:57:27;;;;;;;15.20;11.27;;;16.00;60.30;;;;;;5065801;28;20059;-78
2022/03/10 11:59:53;;;;;;;13.52;11.32;;;15.80;60.00;;;;;;5033287;28;20088;-78
2022/03/10 12:02:40;;;;;;;15.02;11.68;;;15.70;60.70;;;;;;5048659;28;20504;-78
2022/03/10 12:05:06;;;;;;;15.07;11.55;;;15.70;60.70;;;;;;5060583;28;21067;-78
2022/03/10 12:07:32;;;;;;;14.07;11.38;;;15.80;59.90;;;;;;5067290;28;20426;-78
2022/03/10 12:10:08;;;;;;;14.88;11.02;;;15.80;59.60;;;;;;5062894;28;20130;-78
2022/03/10 12:12:38;;;;;;;16.15;11.20;;;16.00;60.10;;;;;;5051602;28;20044;-78
2022/03/10 12:15:23;;;;;;;16.05;12.00;;;16.10;58.40;;;;;;5072100;28;20043;-78
2022/03/10 12:17:54;;;;;;;14.75;11.45;;;15.90;57.60;;;;;;5069464;28;20523;-78
2022/03/10 12:20:23;;;;;;;14.52;11.43;;;15.90;58.00;;;;;;5054937;28;20048;-78
2022/03/10 12:23:09;;;;;;;15.30;10.90;;;16.00;57.60;;;;;;5070002;28;20063;-78
2022/03/10 12:25:48;;;;;;;14.45;11.43;;;16.20;58.30;;;;;;5073528;28;20036;-78
2022/03/10 12:28:29;;;;;;;19.88;12.80;;;16.30;57.50;;;;;;5055375;28;20044;-78
2022/03/10 12:31:16;;;;;;;16.25;12.38;;;16.30;56.00;;;;;;5071251;28;20101;-78
2022/03/10 12:33:56;;;;;;;14.55;11.15;;;16.20;56.20;;;;;;5052404;28;20220;-78
2022/03/10 12:36:30;;;;;;;12.60;10.43;;;16.30;56.40;;;;;;5070834;28;20036;-78
2022/03/10 12:38:57;;;;;;;16.40;11.95;;;16.10;55.90;;;;;;5066241;28;20041;-77
2022/03/10 12:41:39;;;;;;;17.10;11.65;;;15.90;54.50;;;;;;5036018;28;20056;-78
2022/03/10 12:44:07;;;;;;;13.80;10.52;;;15.80;55.90;;;;;;5071532;28;20170;-79
2022/03/10 12:46:34;;;;;;;15.45;11.18;;;15.60;56.80;;;;;;5068635;28;20041;-78
2022/03/10 12:49:06;;;;;;;11.50;9.10;;;15.30;56.20;;;;;;5054169;28;20044;-78
2022/03/10 12:51:36;;;;;;;15.68;11.50;;;15.30;57.10;;;;;;5073828;28;20048;-78
2022/03/10 12:54:03;;;;;;;14.27;11.23;;;15.20;56.20;;;;;;5071100;28;20041;-78